Lodi, California
Current Conditions -  °F | °C
As of 11:55 PM on Tuesday 21 Oct 2014 (Local Time) from KSCK Reporting Station
Clear Clear  
Wind Chill: 57°   Ceiling: Unl
Heat Index: 57°   Visibility: 10mi
Dew Point: 46°   Wind: 7mph
Humidity: 67%   Direction: 290°WNW
Pressure: 30.03"   Gusts: NA
Location:  38.13°N, 121.27°W
Report Text: KSCK 220655Z AUTO 29006KT 10SM CLR 14/08 A3003 RMK AO2 SLP167 T01390078
Loading
Personal Weather Stations






























Interactive Weather Map
Tropical Storm Tracking
New forecast layout! Learn more

10-Day Weather Forecast

Advertisements
Track Severe Weather on mobile